Time;durP1;ratioP1;P1;durP2;ratioP2;P2;SDS_P1;SDS_P2;PMS_P1;PMS_P2;Temp;Humidity;BMP_temperature;BMP_pressure;BME280_temperature;BME280_humidity;BME280_pressure;Samples;Min_cycle;Max_cycle;Signal;HPM_P1;HPM_P2
2022/10/09 00:00:44;;;;;;;11.23;7.77;;;11.10;99.90;;;;;;5114376;28;20456;-55
2022/10/09 00:03:12;;;;;;;10.83;8.17;;;11.20;99.90;;;;;;5113773;28;20458;-55
2022/10/09 00:05:40;;;;;;;9.43;8.00;;;11.10;99.90;;;;;;5112392;28;20461;-56
2022/10/09 00:08:07;;;;;;;9.70;7.57;;;11.10;99.90;;;;;;5112778;28;20442;-56
2022/10/09 00:10:34;;;;;;;9.97;7.73;;;11.10;99.90;;;;;;5113664;28;20807;-56
2022/10/09 00:13:03;;;;;;;10.47;8.30;;;11.30;99.90;;;;;;5111679;27;20482;-55
2022/10/09 00:15:30;;;;;;;12.63;8.30;;;11.40;99.90;;;;;;5113450;28;20449;-56
2022/10/09 00:17:57;;;;;;;15.57;7.50;;;11.40;99.90;;;;;;5113944;28;20537;-55
2022/10/09 00:20:24;;;;;;;10.10;7.20;;;11.30;99.90;;;;;;5111745;28;20461;-55
2022/10/09 00:22:51;;;;;;;24.37;7.40;;;11.00;99.90;;;;;;5113043;28;20870;-56
2022/10/09 00:25:18;;;;;;;7.83;6.80;;;11.00;99.90;;;;;;5113554;28;20925;-55
2022/10/09 00:27:45;;;;;;;10.50;7.70;;;10.80;99.90;;;;;;5111593;28;20450;-55
2022/10/09 00:30:14;;;;;;;10.97;8.30;;;10.90;99.90;;;;;;5113486;28;20455;-55
2022/10/09 00:32:41;;;;;;;13.17;7.60;;;11.00;99.90;;;;;;5113374;28;20943;-55
2022/10/09 00:35:09;;;;;;;13.43;6.93;;;11.10;99.90;;;;;;5112013;27;20454;-55
2022/10/09 00:37:36;;;;;;;8.80;7.83;;;11.20;99.90;;;;;;5113165;28;20450;-55
2022/10/09 00:40:03;;;;;;;10.07;7.57;;;11.20;99.90;;;;;;5113451;28;20445;-56
2022/10/09 00:42:30;;;;;;;15.53;8.43;;;11.30;99.90;;;;;;5110449;28;20466;-55
2022/10/09 00:45:00;;;;;;;12.80;8.27;;;11.10;99.90;;;;;;5112804;28;20925;-55
2022/10/09 00:47:33;;;;;;;12.17;7.47;;;10.90;99.90;;;;;;5113716;28;20584;-55
2022/10/09 00:50:06;;;;;;;9.90;8.07;;;10.90;99.90;;;;;;5110719;28;20438;-55
2022/10/09 00:52:33;;;;;;;7.93;6.97;;;10.80;99.90;;;;;;5113265;28;20478;-55
2022/10/09 00:55:02;;;;;;;8.20;7.10;;;10.70;99.90;;;;;;5112685;28;20474;-55
2022/10/09 00:57:33;;;;;;;8.73;7.50;;;10.80;99.90;;;;;;5111261;28;20937;-55
2022/10/09 01:00:03;;;;;;;8.33;7.53;;;10.90;99.90;;;;;;5112870;28;20546;-55
2022/10/09 01:02:32;;;;;;;11.50;8.23;;;11.00;99.90;;;;;;5111830;28;20462;-55
2022/10/09 01:04:59;;;;;;;9.20;7.90;;;11.10;99.90;;;;;;5112342;28;20450;-55
2022/10/09 01:07:38;;;;;;;15.13;7.10;;;10.90;99.90;;;;;;5112733;28;20446;-55
2022/10/09 01:10:17;;;;;;;9.10;7.57;;;10.80;99.90;;;;;;5110398;28;20905;-55
2022/10/09 01:12:54;;;;;;;10.77;7.70;;;10.70;99.90;;;;;;5112905;28;20486;-56
2022/10/09 01:15:25;;;;;;;11.23;8.03;;;;;;;;;;5112794;28;20426;-55
2022/10/09 01:18:00;;;;;;;8.60;7.50;;;10.50;99.90;;;;;;5110681;28;20814;-55
2022/10/09 01:20:44;;;;;;;8.60;7.17;;;10.40;99.90;;;;;;5112597;28;20415;-56
2022/10/09 01:23:32;;;;;;;16.40;7.40;;;10.40;99.90;;;;;;5111324;28;20473;-55
2022/10/09 01:26:13;;;;;;;11.77;8.07;;;10.50;99.90;;;;;;5110523;28;20426;-56
2022/10/09 01:28:45;;;;;;;10.13;6.63;;;10.70;99.90;;;;;;5112395;28;20766;-55
2022/10/09 01:31:13;;;;;;;10.77;6.80;;;10.70;99.90;;;;;;5112710;28;20446;-56
2022/10/09 01:33:42;;;;;;;9.33;7.70;;;10.70;99.90;;;;;;5110139;28;20474;-56
2022/10/09 01:36:10;;;;;;;8.63;7.70;;;10.50;99.90;;;;;;5112552;28;20447;-56
2022/10/09 01:38:39;;;;;;;8.30;6.83;;;10.50;99.90;;;;;;5111971;28;20945;-56
2022/10/09 01:41:08;;;;;;;11.67;7.00;;;10.60;99.90;;;;;;5109389;28;20439;-55
2022/10/09 01:43:35;;;;;;;7.77;6.90;;;10.70;99.90;;;;;;5112177;28;20446;-55
2022/10/09 01:46:22;;;;;;;11.17;7.10;;;10.60;99.90;;;;;;5112490;28;20521;-56
2022/10/09 01:48:57;;;;;;;11.10;7.47;;;10.60;99.90;;;;;;5109650;28;20709;-55
2022/10/09 01:51:30;;;;;;;8.67;6.80;;;10.50;99.90;;;;;;5112231;28;20509;-55
2022/10/09 01:53:59;;;;;;;9.30;7.00;;;10.40;99.90;;;;;;5111847;28;20537;-55
2022/10/09 01:56:31;;;;;;;8.60;7.10;;;10.50;99.90;;;;;;5110255;28;20449;-55
2022/10/09 01:59:00;;;;;;;8.40;6.37;;;;;;;;;;5111875;28;20418;-56
2022/10/09 02:01:31;;;;;;;8.70;7.60;;;10.30;99.90;;;;;;5112189;28;20546;-56
2022/10/09 02:04:05;;;;;;;8.27;7.37;;;10.40;99.90;;;;;;5110484;28;20433;-56
2022/10/09 02:06:34;;;;;;;9.23;7.37;;;10.30;99.90;;;;;;5112078;28;20902;-55
2022/10/09 02:09:04;;;;;;;11.83;8.67;;;10.20;99.90;;;;;;5111801;28;20516;-56
2022/10/09 02:11:33;;;;;;;10.67;8.03;;;10.20;99.90;;;;;;5110854;28;21889;-56
2022/10/09 02:14:00;;;;;;;12.03;7.80;;;10.10;99.90;;;;;;5112117;28;20482;-56
2022/10/09 02:16:36;;;;;;;9.17;7.00;;;10.00;99.90;;;;;;5111852;28;20449;-55
2022/10/09 02:19:08;;;;;;;11.33;8.23;;;9.90;99.90;;;;;;5112190;28;20426;-56
2022/10/09 02:21:40;;;;;;;10.90;8.27;;;10.00;99.90;;;;;;5111693;28;20458;-55
2022/10/09 02:24:10;;;;;;;10.67;7.37;;;10.10;99.90;;;;;;5109748;28;20484;-57
2022/10/09 02:26:38;;;;;;;9.60;7.30;;;9.90;99.90;;;;;;5112368;28;20434;-56
2022/10/09 02:29:05;;;;;;;9.40;6.97;;;9.90;99.90;;;;;;5111896;28;20453;-56
2022/10/09 02:31:37;;;;;;;9.93;7.10;;;10.00;99.90;;;;;;5109803;28;20911;-56
2022/10/09 02:34:07;;;;;;;10.70;7.80;;;10.10;99.90;;;;;;5112221;28;20458;-55
2022/10/09 02:36:34;;;;;;;11.00;7.40;;;10.20;99.90;;;;;;5111351;28;20438;-56
2022/10/09 02:39:02;;;;;;;11.67;7.33;;;10.10;99.90;;;;;;5109360;28;20595;-56
2022/10/09 02:41:29;;;;;;;10.40;7.20;;;9.90;99.90;;;;;;5111548;28;20546;-56
2022/10/09 02:43:56;;;;;;;7.70;6.90;;;10.00;99.90;;;;;;5111514;28;20443;-55
2022/10/09 02:46:24;;;;;;;9.00;6.80;;;9.80;99.90;;;;;;5108785;28;20920;-55
2022/10/09 02:48:53;;;;;;;8.27;7.47;;;9.80;99.90;;;;;;5111383;28;20810;-55
2022/10/09 02:51:20;;;;;;;9.37;7.70;;;9.90;99.90;;;;;;5111119;28;20442;-56
2022/10/09 02:53:47;;;;;;;8.03;7.20;;;10.00;99.90;;;;;;5109563;28;20478;-55
2022/10/09 02:56:15;;;;;;;10.40;8.63;;;10.10;99.90;;;;;;5111373;28;20478;-55
2022/10/09 02:58:42;;;;;;;11.20;7.50;;;9.90;99.90;;;;;;5111151;28;20449;-55
2022/10/09 03:01:09;;;;;;;9.67;7.60;;;9.90;99.90;;;;;;5109664;28;20451;-56
2022/10/09 03:03:36;;;;;;;7.50;6.80;;;10.00;99.90;;;;;;5111485;28;21074;-55
2022/10/09 03:06:08;;;;;;;7.63;6.93;;;9.90;99.90;;;;;;5111760;28;20967;-55
2022/10/09 03:08:35;;;;;;;7.87;7.00;;;9.80;99.90;;;;;;5109218;28;20644;-56
2022/10/09 03:11:03;;;;;;;9.03;7.17;;;9.70;99.90;;;;;;5112208;28;20461;-55
2022/10/09 03:13:30;;;;;;;11.90;7.10;;;9.70;99.90;;;;;;5114866;28;20478;-55
2022/10/09 03:16:03;;;;;;;8.17;7.07;;;9.90;99.90;;;;;;5112706;28;20446;-56
2022/10/09 03:18:30;;;;;;;8.87;6.47;;;9.90;99.90;;;;;;5114621;28;20426;-55
2022/10/09 03:20:58;;;;;;;11.93;6.57;;;9.90;99.90;;;;;;5115216;28;20451;-55
2022/10/09 03:23:27;;;;;;;8.30;6.37;;;10.00;99.90;;;;;;5112877;28;20469;-55
2022/10/09 03:25:57;;;;;;;7.30;6.60;;;9.90;99.90;;;;;;5114791;28;20439;-55
2022/10/09 03:28:25;;;;;;;8.70;7.80;;;9.70;99.90;;;;;;5115162;28;20454;-56
2022/10/09 03:30:53;;;;;;;7.80;7.10;;;9.60;99.90;;;;;;5112785;28;20465;-55
2022/10/09 03:33:20;;;;;;;11.87;7.90;;;9.70;99.90;;;;;;5114496;28;20491;-55
2022/10/09 03:35:49;;;;;;;9.97;7.20;;;9.80;99.90;;;;;;5114742;28;20447;-55
2022/10/09 03:38:16;;;;;;;7.90;6.57;;;9.90;99.90;;;;;;5113103;28;20570;-57
2022/10/09 03:40:45;;;;;;;10.17;6.90;;;9.90;99.90;;;;;;5113824;28;20450;-56
2022/10/09 03:43:13;;;;;;;8.60;6.10;;;;;;;;;;5114239;28;20498;-56
2022/10/09 03:45:40;;;;;;;6.93;6.20;;;9.80;99.90;;;;;;5112213;28;20957;-56
2022/10/09 03:48:11;;;;;;;10.80;7.23;;;9.90;99.90;;;;;;5113776;28;20461;-56
2022/10/09 03:50:38;;;;;;;9.40;7.63;;;9.80;99.90;;;;;;5113065;28;20431;-56
2022/10/09 03:53:05;;;;;;;9.40;6.90;;;9.80;99.90;;;;;;5111852;28;20960;-57
2022/10/09 03:55:33;;;;;;;8.13;6.97;;;9.60;99.90;;;;;;5113758;28;20474;-56
2022/10/09 03:58:01;;;;;;;8.40;6.60;;;9.50;99.90;;;;;;5114168;28;20993;-55
2022/10/09 04:00:29;;;;;;;10.10;7.27;;;9.60;99.90;;;;;;5112630;28;20658;-56
2022/10/09 04:02:56;;;;;;;10.13;7.07;;;9.60;99.90;;;;;;5114187;28;20595;-56
2022/10/09 04:05:23;;;;;;;7.93;6.50;;;9.60;99.90;;;;;;5114111;28;20431;-55
2022/10/09 04:07:51;;;;;;;10.00;7.37;;;9.70;99.90;;;;;;5112146;28;20452;-55
2022/10/09 04:10:18;;;;;;;7.30;6.60;;;9.40;99.90;;;;;;5113789;28;20933;-55
2022/10/09 04:12:45;;;;;;;9.73;6.73;;;9.20;99.90;;;;;;5114128;28;20486;-55
2022/10/09 04:15:13;;;;;;;10.23;6.37;;;9.30;99.90;;;;;;5111922;28;20474;-55
2022/10/09 04:17:40;;;;;;;7.30;6.60;;;9.40;99.90;;;;;;5113589;28;20447;-55
2022/10/09 04:20:08;;;;;;;9.33;6.50;;;9.50;99.90;;;;;;5113692;28;20447;-56
2022/10/09 04:22:36;;;;;;;7.43;6.63;;;9.60;99.90;;;;;;5111212;28;20471;-55
2022/10/09 04:25:03;;;;;;;8.83;6.50;;;9.50;99.90;;;;;;5113800;28;20518;-56
2022/10/09 04:27:30;;;;;;;14.50;6.63;;;9.20;99.90;;;;;;5113880;28;20446;-56
2022/10/09 04:29:57;;;;;;;11.60;6.83;;;9.20;99.90;;;;;;5110739;28;20925;-56
2022/10/09 04:32:26;;;;;;;10.43;7.30;;;9.20;99.90;;;;;;5113532;28;20463;-56
2022/10/09 04:34:53;;;;;;;9.33;7.30;;;9.10;99.90;;;;;;5113086;28;20482;-56
2022/10/09 04:37:20;;;;;;;13.33;6.40;;;9.20;99.90;;;;;;5111111;28;20929;-56
2022/10/09 04:39:47;;;;;;;8.17;6.53;;;9.20;99.90;;;;;;5112900;28;20453;-56
2022/10/09 04:42:14;;;;;;;7.87;6.40;;;9.20;99.90;;;;;;5113150;27;20466;-56
2022/10/09 04:44:41;;;;;;;11.63;6.60;;;9.10;99.90;;;;;;5111362;28;20453;-56
2022/10/09 04:47:08;;;;;;;8.00;6.50;;;9.00;99.90;;;;;;5112817;28;20447;-55
2022/10/09 04:49:37;;;;;;;8.63;6.80;;;9.00;99.90;;;;;;5113099;28;20443;-55
2022/10/09 04:52:04;;;;;;;8.37;7.40;;;9.20;99.90;;;;;;5111544;28;20553;-56
2022/10/09 04:54:31;;;;;;;7.83;6.23;;;9.10;99.90;;;;;;5112831;28;20490;-55
2022/10/09 04:56:58;;;;;;;8.03;6.63;;;9.00;99.90;;;;;;5112853;28;20469;-54
2022/10/09 04:59:26;;;;;;;13.13;6.60;;;9.20;99.90;;;;;;5110886;28;20453;-56
2022/10/09 05:01:53;;;;;;;11.20;7.47;;;9.20;99.90;;;;;;5113306;28;20477;-56
2022/10/09 05:04:20;;;;;;;14.73;6.67;;;9.10;99.90;;;;;;5113246;28;20837;-56
2022/10/09 05:06:48;;;;;;;9.57;7.60;;;9.00;99.90;;;;;;5111030;28;20449;-55
2022/10/09 05:09:16;;;;;;;7.77;6.30;;;9.00;99.90;;;;;;5112704;28;20450;-56
2022/10/09 05:11:43;;;;;;;7.60;6.63;;;8.90;99.90;;;;;;5113086;28;20984;-54
2022/10/09 05:14:10;;;;;;;8.03;7.23;;;8.90;99.90;;;;;;5111298;28;20711;-57
2022/10/09 05:16:37;;;;;;;9.33;7.23;;;8.90;99.90;;;;;;5113114;27;20468;-54
2022/10/09 05:19:04;;;;;;;9.10;6.63;;;8.90;99.90;;;;;;5112808;28;20451;-54
2022/10/09 05:21:32;;;;;;;9.00;6.23;;;8.80;99.90;;;;;;5111511;28;20474;-55
2022/10/09 05:24:00;;;;;;;8.17;7.37;;;8.80;99.90;;;;;;5112001;28;20488;-54
2022/10/09 05:26:28;;;;;;;6.53;5.93;;;8.80;99.90;;;;;;5112415;28;20450;-54
2022/10/09 05:28:55;;;;;;;7.47;6.77;;;8.90;99.90;;;;;;5111758;28;20446;-55
2022/10/09 05:31:24;;;;;;;10.03;6.13;;;9.10;99.90;;;;;;5111802;28;20725;-54
2022/10/09 05:33:52;;;;;;;9.67;6.40;;;9.10;99.90;;;;;;5111437;28;20470;-54
2022/10/09 05:36:22;;;;;;;9.13;7.53;;;9.00;99.90;;;;;;5111195;28;20717;-54
2022/10/09 05:38:49;;;;;;;9.43;6.67;;;8.90;99.90;;;;;;5112022;28;20510;-54
2022/10/09 05:41:18;;;;;;;8.80;7.03;;;8.90;99.90;;;;;;5111805;28;20453;-55
2022/10/09 05:43:48;;;;;;;6.93;6.30;;;8.90;99.90;;;;;;5110763;28;21000;-54
2022/10/09 05:46:17;;;;;;;12.47;7.23;;;9.00;99.90;;;;;;5112207;28;20427;-54
2022/10/09 05:48:46;;;;;;;7.83;6.07;;;9.10;99.90;;;;;;5112808;28;20446;-55
2022/10/09 05:51:15;;;;;;;8.57;6.40;;;9.20;99.90;;;;;;5109978;28;20446;-54
2022/10/09 05:53:44;;;;;;;6.73;5.90;;;8.80;99.90;;;;;;5111641;28;20957;-55
2022/10/09 05:56:17;;;;;;;7.17;6.57;;;8.80;99.90;;;;;;5111712;28;20478;-55
2022/10/09 05:58:49;;;;;;;10.60;6.77;;;9.00;99.90;;;;;;5110149;28;20435;-54
2022/10/09 06:01:16;;;;;;;11.67;7.67;;;9.10;99.90;;;;;;5112467;28;20454;-55
2022/10/09 06:03:47;;;;;;;6.90;6.20;;;9.10;99.90;;;;;;5111933;28;20529;-55
2022/10/09 06:06:14;;;;;;;6.80;6.10;;;8.90;99.90;;;;;;5108268;28;20439;-55
2022/10/09 06:08:42;;;;;;;8.73;6.70;;;8.70;99.90;;;;;;5111784;28;20925;-55
2022/10/09 06:11:10;;;;;;;7.10;6.37;;;8.60;99.90;;;;;;5111847;28;20956;-55
2022/10/09 06:13:39;;;;;;;8.67;6.60;;;8.60;99.90;;;;;;5109686;28;20899;-55
2022/10/09 06:16:06;;;;;;;8.60;6.73;;;8.80;99.90;;;;;;5111830;28;20446;-56
2022/10/09 06:18:34;;;;;;;8.20;7.40;;;8.90;99.90;;;;;;5111933;28;20491;-55
2022/10/09 06:21:02;;;;;;;10.30;6.77;;;8.90;99.90;;;;;;5109848;28;20547;-54
2022/10/09 06:23:30;;;;;;;8.53;6.83;;;8.80;99.90;;;;;;5111353;28;20458;-54
2022/10/09 06:26:00;;;;;;;8.37;6.57;;;8.80;99.90;;;;;;5111714;28;20917;-54
2022/10/09 06:28:28;;;;;;;9.80;7.13;;;9.00;99.90;;;;;;5109778;28;20446;-55
2022/10/09 06:31:02;;;;;;;9.30;6.47;;;9.00;99.90;;;;;;5111904;28;20557;-56
2022/10/09 06:33:31;;;;;;;7.80;7.00;;;9.00;99.90;;;;;;5111984;28;20470;-55
2022/10/09 06:36:01;;;;;;;7.20;6.00;;;9.10;99.90;;;;;;5109406;28;20486;-55
2022/10/09 06:38:29;;;;;;;9.67;7.30;;;9.10;99.90;;;;;;5111697;28;20945;-55
2022/10/09 06:41:01;;;;;;;10.90;5.87;;;9.30;99.90;;;;;;5110564;28;20446;-55
2022/10/09 06:43:28;;;;;;;7.57;6.80;;;9.50;99.90;;;;;;5109955;28;20821;-55
2022/10/09 06:45:55;;;;;;;11.20;6.43;;;9.60;99.90;;;;;;5114047;28;20457;-55
2022/10/09 06:48:23;;;;;;;7.70;6.90;;;9.60;99.90;;;;;;5114920;28;20454;-55
2022/10/09 06:50:51;;;;;;;8.40;7.03;;;9.70;99.90;;;;;;5113662;28;20780;-55
2022/10/09 06:53:18;;;;;;;9.10;6.47;;;9.70;99.90;;;;;;5115114;28;20466;-55
2022/10/09 06:55:54;;;;;;;8.40;6.33;;;9.50;99.90;;;;;;5114757;28;21031;-55
2022/10/09 06:58:21;;;;;;;11.53;6.90;;;9.50;99.90;;;;;;5113087;28;20466;-54
2022/10/09 07:00:48;;;;;;;9.37;6.50;;;9.50;99.90;;;;;;5115322;28;21003;-55
2022/10/09 07:03:16;;;;;;;7.77;6.50;;;9.50;99.90;;;;;;5115062;28;20509;-55
2022/10/09 07:05:44;;;;;;;10.73;7.33;;;9.60;99.90;;;;;;5112936;28;20443;-55
2022/10/09 07:08:11;;;;;;;8.30;6.33;;;9.60;99.90;;;;;;5114852;28;20442;-55
2022/10/09 07:10:38;;;;;;;8.03;7.20;;;9.70;99.90;;;;;;5115129;28;20446;-55
2022/10/09 07:13:05;;;;;;;9.73;6.97;;;9.80;99.90;;;;;;5113171;28;20466;-55
2022/10/09 07:15:32;;;;;;;9.20;6.03;;;9.90;99.90;;;;;;5115178;28;20489;-56
2022/10/09 07:18:02;;;;;;;8.47;6.40;;;10.00;99.90;;;;;;5115308;28;20443;-55
2022/10/09 07:20:29;;;;;;;7.30;6.07;;;10.10;99.90;;;;;;5112152;28;20486;-55
2022/10/09 07:22:57;;;;;;;9.03;6.23;;;10.10;99.90;;;;;;5115075;28;20466;-54
2022/10/09 07:25:24;;;;;;;8.17;6.27;;;10.20;99.90;;;;;;5114740;28;20534;-55
2022/10/09 07:27:52;;;;;;;11.83;6.20;;;10.20;99.90;;;;;;5112546;28;20492;-55
2022/10/09 07:30:19;;;;;;;10.53;6.70;;;10.20;99.90;;;;;;5115125;28;20533;-54
2022/10/09 07:32:46;;;;;;;7.00;6.30;;;10.30;99.90;;;;;;5114641;28;20462;-55
2022/10/09 07:35:13;;;;;;;7.63;6.83;;;10.20;99.90;;;;;;5112231;28;20474;-55
2022/10/09 07:37:41;;;;;;;6.83;5.63;;;10.30;99.90;;;;;;5115129;28;20447;-55
2022/10/09 07:40:10;;;;;;;10.17;6.17;;;10.40;99.90;;;;;;5113578;28;20541;-54
2022/10/09 07:42:37;;;;;;;8.57;6.50;;;10.40;99.90;;;;;;5112144;28;20462;-54
2022/10/09 07:45:05;;;;;;;8.37;6.30;;;10.50;99.90;;;;;;5114686;28;20553;-55
2022/10/09 07:47:32;;;;;;;7.13;6.43;;;10.60;99.90;;;;;;5114544;28;20450;-55
2022/10/09 07:49:59;;;;;;;7.00;6.30;;;10.70;99.90;;;;;;5112122;28;20533;-55
2022/10/09 07:52:27;;;;;;;7.33;5.93;;;10.80;99.90;;;;;;5114514;28;20466;-55
2022/10/09 07:54:54;;;;;;;7.80;6.77;;;10.90;99.90;;;;;;5113902;28;20509;-55
2022/10/09 07:57:22;;;;;;;6.87;5.50;;;10.90;99.90;;;;;;5111410;28;20486;-55
2022/10/09 07:59:49;;;;;;;8.90;5.83;;;11.00;99.90;;;;;;5114038;28;20448;-55
2022/10/09 08:02:16;;;;;;;8.77;6.13;;;11.00;99.90;;;;;;5114401;28;20816;-55
2022/10/09 08:04:44;;;;;;;6.63;5.43;;;11.10;99.90;;;;;;5111897;28;20497;-57
2022/10/09 08:07:11;;;;;;;6.93;6.33;;;11.30;99.90;;;;;;5114203;28;20446;-55
2022/10/09 08:09:38;;;;;;;6.00;5.40;;;11.40;99.90;;;;;;5113805;28;20478;-55
2022/10/09 08:12:05;;;;;;;6.47;5.20;;;11.50;99.90;;;;;;5111904;28;20908;-55
2022/10/09 08:14:34;;;;;;;7.83;5.87;;;11.50;99.90;;;;;;5113558;28;20470;-55
2022/10/09 08:17:01;;;;;;;5.70;5.30;;;11.60;99.90;;;;;;5113590;28;20448;-56
2022/10/09 08:19:28;;;;;;;9.40;5.40;;;11.60;99.90;;;;;;5111624;28;20881;-56
2022/10/09 08:21:55;;;;;;;8.00;5.63;;;11.80;99.90;;;;;;5114075;28;20799;-56
2022/10/09 08:24:22;;;;;;;5.97;5.27;;;11.90;99.90;;;;;;5113747;28;20440;-56
2022/10/09 08:26:50;;;;;;;9.53;5.07;;;12.00;99.90;;;;;;5111426;28;20709;-55
2022/10/09 08:29:19;;;;;;;6.13;5.20;;;12.00;99.90;;;;;;5113645;28;20446;-55
2022/10/09 08:31:48;;;;;;;7.93;5.10;;;12.00;99.90;;;;;;5113892;28;20529;-55
2022/10/09 08:34:15;;;;;;;8.20;6.53;;;12.00;99.90;;;;;;5111182;28;20679;-56
2022/10/09 08:36:42;;;;;;;6.63;6.00;;;11.90;99.90;;;;;;5113639;28;20569;-56
2022/10/09 08:39:10;;;;;;;7.87;4.70;;;12.00;99.90;;;;;;5112633;28;20930;-56
2022/10/09 08:41:45;;;;;;;7.30;5.33;;;12.10;99.90;;;;;;5111119;28;20534;-55
2022/10/09 08:44:17;;;;;;;5.93;5.30;;;12.10;99.90;;;;;;5113029;28;20446;-57
2022/10/09 08:46:58;;;;;;;5.63;5.13;;;12.10;99.90;;;;;;5113067;28;20442;-55
2022/10/09 08:49:30;;;;;;;6.70;4.97;;;12.20;99.90;;;;;;5110631;28;20431;-55
2022/10/09 08:52:03;;;;;;;6.07;5.47;;;12.30;99.90;;;;;;5112855;28;20553;-55
2022/10/09 08:54:35;;;;;;;7.00;4.63;;;12.30;99.90;;;;;;5113468;28;20833;-55
2022/10/09 08:57:04;;;;;;;8.70;5.97;;;12.30;99.90;;;;;;5111361;28;20466;-55
2022/10/09 08:59:32;;;;;;;6.47;5.73;;;12.30;99.90;;;;;;5113112;28;20450;-55
2022/10/09 09:02:12;;;;;;;5.27;4.60;;;12.40;99.90;;;;;;5113812;28;20474;-56
2022/10/09 09:04:50;;;;;;;6.63;5.00;;;12.50;99.90;;;;;;5110926;28;20435;-56
2022/10/09 09:07:27;;;;;;;6.03;4.77;;;12.70;99.90;;;;;;5113276;28;20426;-55
2022/10/09 09:10:02;;;;;;;7.00;4.73;;;12.80;99.90;;;;;;5113263;28;20451;-56
2022/10/09 09:12:37;;;;;;;7.07;5.30;;;13.00;99.90;;;;;;5109713;28;20496;-55
2022/10/09 09:15:25;;;;;;;7.90;4.60;;;13.00;99.90;;;;;;5112331;28;20527;-55
2022/10/09 09:18:04;;;;;;;6.60;4.70;;;13.10;99.90;;;;;;5112667;28;20423;-56
2022/10/09 09:20:43;;;;;;;12.00;5.50;;;13.20;99.90;;;;;;5110918;28;20417;-55
2022/10/09 09:23:15;;;;;;;4.93;4.00;;;13.50;99.90;;;;;;5112659;28;20493;-56
2022/10/09 09:25:46;;;;;;;4.90;4.10;;;13.60;99.90;;;;;;5111929;28;20518;-56
2022/10/09 09:28:19;;;;;;;5.80;3.53;;;13.70;99.90;;;;;;5112146;28;20503;-55
2022/10/09 09:30:51;;;;;;;4.53;3.87;;;13.80;99.90;;;;;;5112721;28;20482;-56
2022/10/09 09:33:29;;;;;;;5.97;4.50;;;13.90;99.90;;;;;;5110262;28;20458;-56
2022/10/09 09:36:09;;;;;;;3.90;3.30;;;13.90;99.90;;;;;;5112115;28;20466;-55
2022/10/09 09:38:36;;;;;;;6.70;4.27;;;14.00;99.90;;;;;;5111889;28;20430;-56
2022/10/09 09:41:05;;;;;;;6.63;3.50;;;14.10;99.90;;;;;;5109408;28;20485;-56
2022/10/09 09:43:32;;;;;;;6.50;3.97;;;14.30;99.90;;;;;;5112201;28;20476;-56
2022/10/09 09:46:00;;;;;;;4.90;4.17;;;14.30;99.90;;;;;;5112265;28;20530;-56
2022/10/09 09:48:34;;;;;;;3.47;3.17;;;14.40;99.90;;;;;;5110168;28;20936;-55
2022/10/09 09:51:04;;;;;;;5.23;3.17;;;15.10;99.90;;;;;;5112434;28;20434;-56
2022/10/09 09:53:34;;;;;;;5.30;3.13;;;;;;;;;;5112260;28;20964;-56
2022/10/09 09:56:02;;;;;;;4.30;2.90;;;17.70;99.90;;;;;;5109770;28;21060;-56
2022/10/09 09:58:36;;;;;;;4.43;2.30;;;18.20;99.90;;;;;;5112114;28;20579;-56
2022/10/09 10:01:06;;;;;;;4.60;3.80;;;18.70;99.90;;;;;;5112040;28;20443;-56
2022/10/09 10:03:36;;;;;;;4.00;2.80;;;19.70;99.50;;;;;;5111229;28;20469;-56
2022/10/09 10:06:03;;;;;;;3.67;2.83;;;20.20;98.90;;;;;;5112930;28;20447;-57
2022/10/09 10:08:33;;;;;;;6.90;2.97;;;20.20;98.50;;;;;;5112571;28;20450;-56
2022/10/09 10:11:01;;;;;;;5.00;3.10;;;19.80;98.50;;;;;;5111172;28;20482;-56
2022/10/09 10:13:32;;;;;;;5.97;3.60;;;;;;;;;;5112735;28;20472;-57
2022/10/09 10:16:00;;;;;;;6.03;3.43;;;20.60;97.20;;;;;;5112298;28;20485;-57
2022/10/09 10:18:31;;;;;;;3.83;3.13;;;20.40;97.10;;;;;;5111032;28;20535;-56
2022/10/09 10:21:04;;;;;;;5.60;3.07;;;21.00;96.80;;;;;;5115293;28;20772;-56
2022/10/09 10:23:36;;;;;;;6.17;2.80;;;20.90;96.20;;;;;;5116703;28;20827;-56
2022/10/09 10:26:08;;;;;;;3.53;3.13;;;21.10;96.40;;;;;;5114878;28;20424;-56
2022/10/09 10:28:38;;;;;;;4.37;2.50;;;;;;;;;;5116787;28;20921;-57
2022/10/09 10:31:08;;;;;;;7.83;3.43;;;;;;;;;;5116993;28;20503;-56
2022/10/09 10:33:38;;;;;;;3.30;2.30;;;22.50;92.90;;;;;;5114711;28;20969;-56
2022/10/09 10:36:10;;;;;;;3.53;2.93;;;22.30;93.20;;;;;;5116491;28;20485;-56
2022/10/09 10:38:43;;;;;;;2.83;2.63;;;22.20;93.00;;;;;;5116689;28;20427;-57
2022/10/09 10:41:17;;;;;;;3.90;2.80;;;22.60;93.00;;;;;;5114406;28;20430;-58
2022/10/09 10:43:47;;;;;;;3.43;2.50;;;23.20;91.40;;;;;;5116589;28;20476;-56
2022/10/09 10:46:22;;;;;;;3.60;2.60;;;23.50;90.80;;;;;;5116509;28;20951;-56
2022/10/09 10:48:50;;;;;;;4.00;2.90;;;23.30;91.20;;;;;;5113943;28;20411;-56
2022/10/09 10:51:41;;;;;;;4.53;2.63;;;23.70;89.30;;;;;;5115427;28;20442;-56
2022/10/09 10:54:19;;;;;;;3.63;2.83;;;23.70;87.20;;;;;;5114281;28;20448;-56
2022/10/09 10:56:51;;;;;;;3.87;2.43;;;23.50;88.10;;;;;;5113679;28;20780;-56
2022/10/09 10:59:32;;;;;;;5.63;2.10;;;23.30;81.60;;;;;;5116494;28;20465;-56
2022/10/09 11:02:33;;;;;;;2.37;2.07;;;22.70;82.10;;;;;;5115241;28;20478;-56
2022/10/09 11:05:14;;;;;;;3.40;2.47;;;22.90;83.20;;;;;;5068225;28;20458;-56
2022/10/09 11:07:49;;;;;;;2.90;2.20;;;23.00;84.20;;;;;;5115489;28;20506;-55
2022/10/09 11:10:23;;;;;;;3.43;2.17;;;23.10;78.90;;;;;;5114013;28;20523;-56
2022/10/09 11:12:58;;;;;;;3.10;1.77;;;22.60;78.20;;;;;;5116219;28;20472;-56
2022/10/09 11:15:36;;;;;;;2.73;2.30;;;23.00;79.50;;;;;;5115879;28;20432;-55
2022/10/09 11:18:14;;;;;;;4.00;2.30;;;23.00;79.40;;;;;;5113973;28;20854;-56
2022/10/09 11:20:58;;;;;;;3.53;2.50;;;23.20;77.00;;;;;;5116183;28;20426;-56
2022/10/09 11:23:35;;;;;;;2.00;1.80;;;22.10;77.20;;;;;;5115590;28;20811;-55
2022/10/09 11:26:13;;;;;;;2.43;2.23;;;21.60;78.10;;;;;;5114157;28;20434;-57
2022/10/09 11:28:45;;;;;;;3.20;1.73;;;22.50;80.90;;;;;;5116392;28;20435;-57
2022/10/09 11:31:16;;;;;;;2.50;2.10;;;21.90;76.80;;;;;;5115309;28;20477;-57
2022/10/09 11:33:46;;;;;;;2.97;2.07;;;22.10;77.80;;;;;;5113758;28;20432;-57
2022/10/09 11:36:20;;;;;;;2.57;2.00;;;22.60;80.80;;;;;;5115742;28;20463;-56
2022/10/09 11:38:53;;;;;;;5.23;2.20;;;22.80;75.60;;;;;;5115463;28;20890;-57
2022/10/09 11:41:20;;;;;;;4.13;1.83;;;22.30;78.10;;;;;;5115343;28;20423;-57
2022/10/09 11:43:56;;;;;;;4.87;1.90;;;22.70;76.20;;;;;;5115708;28;20443;-58
2022/10/09 11:46:34;;;;;;;2.30;2.10;;;23.10;76.10;;;;;;5114641;28;20419;-56
2022/10/09 11:49:07;;;;;;;3.90;2.20;;;23.00;76.40;;;;;;5115651;28;20422;-57
2022/10/09 11:51:42;;;;;;;6.17;2.03;;;23.10;76.70;;;;;;5115669;28;20482;-57
2022/10/09 11:54:14;;;;;;;3.80;2.20;;;23.50;77.80;;;;;;5113956;28;20529;-57
2022/10/09 11:56:53;;;;;;;5.87;2.27;;;23.00;73.50;;;;;;5115050;28;20981;-57
2022/10/09 11:59:24;;;;;;;4.30;1.80;;;23.00;74.40;;;;;;5114966;28;20426;-56
2022/10/09 12:01:52;;;;;;;2.57;2.10;;;22.80;74.20;;;;;;5114313;28;20601;-56
2022/10/09 12:04:28;;;;;;;3.10;2.27;;;22.30;73.40;;;;;;5115218;28;21071;-56
2022/10/09 12:06:58;;;;;;;4.53;1.93;;;21.70;74.30;;;;;;5114834;28;20434;-56
2022/10/09 12:09:29;;;;;;;2.70;1.97;;;21.60;75.80;;;;;;5113970;28;20453;-56
2022/10/09 12:12:06;;;;;;;2.83;1.93;;;21.70;76.00;;;;;;5115115;28;20459;-57
2022/10/09 12:14:35;;;;;;;3.00;2.07;;;21.70;75.50;;;;;;5114815;28;20839;-56
2022/10/09 12:17:02;;;;;;;6.73;2.37;;;22.00;77.20;;;;;;5113658;28;20832;-56
2022/10/09 12:19:35;;;;;;;4.63;2.10;;;22.20;77.90;;;;;;5115060;28;20442;-56
2022/10/09 12:22:06;;;;;;;3.20;2.37;;;21.90;77.10;;;;;;5114697;28;20502;-56
2022/10/09 12:24:39;;;;;;;2.97;2.17;;;21.50;76.20;;;;;;5113359;28;20442;-56
2022/10/09 12:27:08;;;;;;;2.70;2.23;;;21.50;78.50;;;;;;5114485;28;20889;-56
2022/10/09 12:29:42;;;;;;;3.80;2.20;;;21.50;78.80;;;;;;5113874;27;20690;-56
2022/10/09 12:32:16;;;;;;;3.70;2.47;;;21.10;76.00;;;;;;5112815;28;20462;-56
2022/10/09 12:34:47;;;;;;;2.77;2.20;;;20.80;76.00;;;;;;5114535;28;20534;-56
2022/10/09 12:37:17;;;;;;;2.90;2.13;;;21.20;77.30;;;;;;5114287;28;20450;-56
2022/10/09 12:39:47;;;;;;;5.20;2.27;;;21.50;77.20;;;;;;5113050;28;20443;-55
2022/10/09 12:42:19;;;;;;;3.83;2.03;;;21.00;76.10;;;;;;5114125;28;20473;-56
2022/10/09 12:44:48;;;;;;;3.17;2.00;;;20.20;77.60;;;;;;5114142;28;20433;-56
2022/10/09 12:47:22;;;;;;;2.70;1.93;;;20.80;78.00;;;;;;5113624;28;20650;-55
2022/10/09 12:50:00;;;;;;;4.70;2.00;;;20.40;77.30;;;;;;5113882;28;20430;-55
2022/10/09 12:52:28;;;;;;;3.33;2.43;;;20.60;78.70;;;;;;5114046;28;20462;-57
2022/10/09 12:54:56;;;;;;;2.43;2.03;;;20.40;77.00;;;;;;5112121;28;20482;-56
2022/10/09 12:57:25;;;;;;;2.53;1.90;;;20.60;78.60;;;;;;5113998;28;20501;-57
2022/10/09 12:59:52;;;;;;;2.80;2.43;;;20.90;79.10;;;;;;5113622;28;20535;-56
2022/10/09 13:02:21;;;;;;;5.13;2.20;;;21.30;79.20;;;;;;5112887;28;20474;-57
2022/10/09 13:04:59;;;;;;;2.00;1.80;;;21.30;77.80;;;;;;5113642;28;20490;-57